Time;durP1;ratioP1;P1;durP2;ratioP2;P2;SDS_P1;SDS_P2;PMS_P1;PMS_P2;Temp;Humidity;BMP_temperature;BMP_pressure;BME280_temperature;BME280_humidity;BME280_pressure;Samples;Min_cycle;Max_cycle;Signal;HPM_P1;HPM_P2
2023/07/16 00:02:28;;;;;;;;;;;;;;;-140.72;0.00;52506.53;5097020;28;19927;-72
2023/07/16 00:04:56;;;;;;;;;;;;;;;-140.72;0.00;52522.75;5088040;28;19916;-71
2023/07/16 00:07:21;;;;;;;;;;;;;;;-140.72;0.00;52541.03;5080342;28;20321;-71
2023/07/16 00:09:47;;;;;;;;;;;;;;;-140.72;0.00;52563.34;5096555;28;19924;-72
2023/07/16 00:12:12;;;;;;;;;;;;;;;-140.72;0.00;52480.16;5062389;28;20011;-71
2023/07/16 00:14:37;;;;;;;;;;;;;;;-140.72;0.00;52524.78;5087163;28;19946;-71
2023/07/16 00:17:02;;;;;;;;;;;;;;;-140.72;0.00;52549.13;5081535;28;19923;-71
2023/07/16 00:19:28;;;;;;;;;;;;;;;-140.72;0.00;52502.47;5083682;28;19962;-72
2023/07/16 00:21:53;;;;;;;;;;;;;;;-140.72;0.00;52508.56;5092646;28;19920;-72
2023/07/16 00:24:18;;;;;;;;;;;;;;;-140.72;0.00;52528.84;5093790;28;20284;-72
2023/07/16 00:26:54;;;;;;;;;;;;;;;-140.72;0.00;52524.78;5095970;28;19963;-72
2023/07/16 00:29:19;;;;;;;;;;;;;;;-140.72;0.00;52530.88;5090123;28;19920;-72
2023/07/16 00:31:45;;;;;;;;;;;;;;;-140.72;0.00;52502.47;5090911;28;19987;-72
2023/07/16 00:34:24;;;;;;;;;;;;;;;-140.72;0.00;52553.19;5081846;28;20234;-72
2023/07/16 00:36:51;;;;;;;;;;;;;;;-140.72;0.00;52520.72;5093801;28;19936;-72
2023/07/16 00:39:16;;;;;;;;;;;;;;;-140.72;0.00;52532.91;5093274;28;20034;-72
2023/07/16 00:41:41;;;;;;;;;;;;;;;-140.72;0.00;52504.50;5089480;28;19955;-72
2023/07/16 00:44:07;;;;;;;;;;;;;;;-140.72;0.00;52530.88;5082681;28;19982;-72
2023/07/16 00:46:32;;;;;;;;;;;;;;;-140.72;0.00;52500.44;5101444;28;19920;-72
2023/07/16 00:48:58;;;;;;;;;;;;;;;-140.72;0.00;52520.72;5099021;28;19938;-72
2023/07/16 00:51:24;;;;;;;;;;;;;;;-140.72;0.00;52522.75;5079347;28;19939;-72
2023/07/16 00:53:49;;;;;;;;;;;;;;;-140.72;0.00;52516.66;5074125;28;19923;-71
2023/07/16 00:56:16;;;;;;;;;;;;;;;-140.72;0.00;52530.88;5078493;28;19920;-72
2023/07/16 00:58:42;;;;;;;;;;;;;;;-140.72;0.00;52532.91;5093156;28;19943;-72
2023/07/16 01:01:07;;;;;;;;;;;;;;;-140.72;0.00;52536.97;5080701;28;20000;-72
2023/07/16 01:03:37;;;;;;;;;;;;;;;-140.72;0.00;52573.50;5067791;28;19920;-72
2023/07/16 01:06:11;;;;;;;;;;;;;;;-140.72;0.00;52536.97;5085544;28;19920;-72
2023/07/16 01:08:49;;;;;;;;;;;;;;;-140.72;0.00;52518.69;5081989;28;19920;-72
2023/07/16 01:11:15;;;;;;;;;;;;;;;-140.72;0.00;52536.97;5075363;28;19920;-72
2023/07/16 01:13:40;;;;;;;;;;;;;;;-140.72;0.00;52508.56;5086877;28;19916;-72
2023/07/16 01:16:06;;;;;;;;;;;;;;;-140.72;0.00;52494.34;5089051;28;19916;-72
2023/07/16 01:18:31;;;;;;;;;;;;;;;-140.72;0.00;52514.63;5093355;28;19917;-72
2023/07/16 01:20:56;;;;;;;;;;;;;;;-140.72;0.00;52502.47;5092471;28;20319;-72
2023/07/16 01:23:40;;;;;;;;;;;;;;;-140.72;0.00;52545.06;5097050;28;19981;-73
2023/07/16 01:26:24;;;;;;;;;;;;;;;-140.72;0.00;52518.69;5086870;28;19920;-72
2023/07/16 01:29:22;;;;;;;;;;;;;;;-140.72;0.00;52569.44;5089543;28;19971;-72
2023/07/16 01:31:50;;;;;;;;;;;;;;;-140.72;0.00;52553.19;5079460;28;19970;-72
2023/07/16 01:34:15;;;;;;;;;;;;;;;-140.72;0.00;52545.06;5090600;28;19920;-73
2023/07/16 01:36:41;;;;;;;;;;;;;;;-140.72;0.00;52532.91;5087831;28;20354;-72
2023/07/16 01:39:06;;;;;;;;;;;;;;;-140.72;0.00;52530.88;5080318;28;19920;-72
2023/07/16 01:41:31;;;;;;;;;;;;;;;-140.72;0.00;52526.81;5093876;28;20310;-72
2023/07/16 01:43:57;;;;;;;;;;;;;;;-140.72;0.00;52516.66;5075797;28;20293;-72
2023/07/16 01:46:22;;;;;;;;;;;;;;;-140.72;0.00;52545.06;5102450;28;20006;-72
2023/07/16 01:48:47;;;;;;;;;;;;;;;-140.72;0.00;52547.09;5094116;28;19923;-73
2023/07/16 01:51:14;;;;;;;;;;;;;;;-140.72;0.00;52573.50;5082017;28;19925;-72
2023/07/16 01:53:39;;;;;;;;;;;;;;;-140.72;0.00;52547.09;5079853;28;19920;-73
2023/07/16 01:56:04;;;;;;;;;;;;;;;-140.72;0.00;52528.84;5089177;28;19923;-73
2023/07/16 01:58:29;;;;;;;;;;;;;;;-140.72;0.00;52545.06;5090373;28;20003;-73
2023/07/16 02:00:55;;;;;;;;;;;;;;;-140.72;0.00;52539.00;5076496;28;19923;-73
2023/07/16 02:03:20;;;;;;;;;;;;;;;-140.72;0.00;52528.84;5088434;28;19921;-73
2023/07/16 02:05:45;;;;;;;;;;;;;;;-140.72;0.00;52553.19;5093450;28;19920;-73
2023/07/16 02:08:10;;;;;;;;;;;;;;;-140.72;0.00;52520.72;5097834;28;19916;-73
2023/07/16 02:10:36;;;;;;;;;;;;;;;-140.72;0.00;52532.91;5106977;28;20361;-73
2023/07/16 02:13:01;;;;;;;;;;;;;;;-140.72;0.00;52561.31;5077036;28;20387;-73
2023/07/16 02:15:26;;;;;;;;;;;;;;;-140.72;0.00;52559.28;5090990;28;20018;-73
2023/07/16 02:17:52;;;;;;;;;;;;;;;-140.72;0.00;52536.97;5095546;28;19916;-73
2023/07/16 02:20:17;;;;;;;;;;;;;;;-140.72;0.00;52530.88;5089529;28;19951;-73
2023/07/16 02:22:42;;;;;;;;;;;;;;;-140.72;0.00;52518.69;5095105;28;19927;-74
2023/07/16 02:25:07;;;;;;;;;;;;;;;-140.72;0.00;52498.41;5104450;28;20412;-73
2023/07/16 02:27:33;;;;;;;;;;;;;;;-140.72;0.00;52532.91;5100465;28;20381;-73
2023/07/16 02:29:58;;;;;;;;;;;;;;;-140.72;0.00;52512.59;5106234;28;19924;-73
2023/07/16 02:32:23;;;;;;;;;;;;;;;-140.72;0.00;52518.69;5092034;28;19921;-73
2023/07/16 02:34:49;;;;;;;;;;;;;;;-140.72;0.00;52494.34;5090921;28;19921;-73
2023/07/16 02:37:14;;;;;;;;;;;;;;;-140.72;0.00;52532.91;5084926;28;19916;-73
2023/07/16 02:39:41;;;;;;;;;;;;;;;-140.72;0.00;52530.88;5096395;28;19959;-73
2023/07/16 02:42:06;;;;;;;;;;;;;;;-140.72;0.00;52559.28;5085789;28;19989;-73
2023/07/16 02:44:31;;;;;;;;;;;;;;;-140.72;0.00;52541.03;5089949;28;19916;-73
2023/07/16 02:46:56;;;;;;;;;;;;;;;-140.72;0.00;52532.91;5087040;28;19927;-73
2023/07/16 02:49:31;;;;;;;;;;;;;;;-140.72;0.00;52563.34;5079641;28;19923;-73
2023/07/16 02:51:56;;;;;;;;;;;;;;;-140.72;0.00;52565.38;5088788;28;19928;-73
2023/07/16 02:54:21;;;;;;;;;;;;;;;-140.72;0.00;52541.03;5080056;28;19916;-74
2023/07/16 02:56:53;;;;;;;;;;;;;;;-140.72;0.00;52518.69;5075333;28;19944;-73
2023/07/16 02:59:19;;;;;;;;;;;;;;;-140.72;0.00;52520.72;5075831;28;20402;-73
2023/07/16 03:01:44;;;;;;;;;;;;;;;-140.72;0.00;52565.38;5084066;28;20010;-73
2023/07/16 03:04:09;;;;;;;;;;;;;;;-140.72;0.00;52561.31;5094256;28;19939;-73
2023/07/16 03:06:34;;;;;;;;;;;;;;;-140.72;0.00;52561.31;5073380;28;20076;-73
2023/07/16 03:09:00;;;;;;;;;;;;;;;-140.72;0.00;52534.94;5088981;28;19917;-74
2023/07/16 03:11:25;;;;;;;;;;;;;;;-140.72;0.00;52545.06;5090791;28;19985;-73
2023/07/16 03:13:50;;;;;;;;;;;;;;;-140.72;0.00;52536.97;5084735;28;19936;-74
2023/07/16 03:16:15;;;;;;;;;;;;;;;-140.72;0.00;52534.94;5092387;28;19928;-73
2023/07/16 03:18:41;;;;;;;;;;;;;;;-140.72;0.00;52555.22;5096396;28;20435;-73
2023/07/16 03:21:06;;;;;;;;;;;;;;;-140.72;0.00;52549.13;5091843;28;19963;-73
2023/07/16 03:23:31;;;;;;;;;;;;;;;-140.72;0.00;52524.78;5096391;28;19974;-73
2023/07/16 03:25:56;;;;;;;;;;;;;;;-140.72;0.00;52551.16;5090956;28;20407;-73
2023/07/16 03:28:22;;;;;;;;;;;;;;;-140.72;0.00;52534.94;5080774;28;19920;-73
2023/07/16 03:30:48;;;;;;;;;;;;;;;-140.72;0.00;52557.25;5078676;28;19968;-73
2023/07/16 03:33:13;;;;;;;;;;;;;;;-140.72;0.00;52567.41;5088143;28;20036;-73
2023/07/16 03:35:38;;;;;;;;;;;;;;;-140.72;0.00;52549.13;5100870;28;20028;-73
2023/07/16 03:38:04;;;;;;;;;;;;;;;-140.72;0.00;52555.22;5093878;28;19920;-73
2023/07/16 03:40:30;;;;;;;;;;;;;;;-140.72;0.00;52555.22;5087286;28;19920;-73
2023/07/16 03:42:55;;;;;;;;;;;;;;;-140.72;0.00;52528.84;5090551;28;19927;-73
2023/07/16 03:45:20;;;;;;;;;;;;;;;-140.72;0.00;52541.03;5089308;28;20354;-73
2023/07/16 03:48:04;;;;;;;;;;;;;;;-140.72;0.00;52551.16;5091760;28;19982;-73
2023/07/16 03:50:30;;;;;;;;;;;;;;;-140.72;0.00;52573.50;5091127;28;19920;-73
2023/07/16 03:52:55;;;;;;;;;;;;;;;-140.72;0.00;52528.84;5083666;28;19984;-73
2023/07/16 03:55:21;;;;;;;;;;;;;;;-140.72;0.00;52585.66;5083736;28;20398;-73
2023/07/16 03:57:46;;;;;;;;;;;;;;;-140.72;0.00;52559.28;5091518;28;20010;-73
2023/07/16 04:00:27;;;;;;;;;;;;;;;-140.72;0.00;52553.19;5067063;28;19916;-73
2023/07/16 04:02:52;;;;;;;;;;;;;;;-140.72;0.00;52607.97;5081202;28;19916;-73
2023/07/16 04:05:18;;;;;;;;;;;;;;;-140.72;0.00;52536.97;5085477;28;19928;-74
2023/07/16 04:07:48;;;;;;;;;;;;;;;-140.72;0.00;52528.84;5083872;28;20397;-73
2023/07/16 04:10:14;;;;;;;;;;;;;;;-140.72;0.00;52561.31;5067536;28;20259;-73
2023/07/16 04:12:39;;;;;;;;;;;;;;;-140.72;0.00;52508.56;5081408;28;19943;-74
2023/07/16 04:15:07;;;;;;;;;;;;;;;-140.72;0.00;52553.19;5067620;28;19954;-73
2023/07/16 04:17:35;;;;;;;;;;;;;;;-140.72;0.00;52557.25;5087619;28;19916;-73
2023/07/16 04:20:01;;;;;;;;;;;;;;;-140.72;0.00;52545.06;5087442;28;19956;-73
2023/07/16 04:25:35;;;;;;;;;;;;;;;-140.72;0.00;52557.25;5074928;28;19928;-73
2023/07/16 04:28:03;;;;;;;;;;;;;;;-140.72;0.00;52555.22;5094740;28;19920;-74
2023/07/16 04:30:29;;;;;;;;;;;;;;;-140.72;0.00;52512.59;5084071;28;20011;-73
2023/07/16 04:32:54;;;;;;;;;;;;;;;-140.72;0.00;52569.44;5092513;28;20499;-73
2023/07/16 04:35:19;;;;;;;;;;;;;;;-140.72;0.00;52595.81;5091854;28;19916;-73
2023/07/16 04:37:44;;;;;;;;;;;;;;;-140.72;0.00;52561.31;5093997;28;20000;-72
2023/07/16 04:40:10;;;;;;;;;;;;;;;-140.72;0.00;52551.16;5086494;28;19961;-72
2023/07/16 04:42:35;;;;;;;;;;;;;;;-140.72;0.00;52549.13;5092976;28;19967;-73
2023/07/16 04:45:00;;;;;;;;;;;;;;;-140.72;0.00;52518.69;5075980;28;19916;-72
2023/07/16 04:47:25;;;;;;;;;;;;;;;-140.72;0.00;52520.72;5086089;28;19920;-72
2023/07/16 04:49:51;;;;;;;;;;;;;;;-140.72;0.00;52549.13;5089867;28;19924;-72
2023/07/16 04:52:16;;;;;;;;;;;;;;;-140.72;0.00;52508.56;5085081;28;19920;-72
2023/07/16 04:54:41;;;;;;;;;;;;;;;-140.72;0.00;52543.03;5081180;28;19966;-73
2023/07/16 04:57:07;;;;;;;;;;;;;;;-140.72;0.00;52543.03;5080619;28;19985;-73
2023/07/16 04:59:33;;;;;;;;;;;;;;;-140.72;0.00;52524.78;5061551;28;19920;-73
2023/07/16 05:01:58;;;;;;;;;;;;;;;-140.72;0.00;52583.63;5074456;28;20491;-73
2023/07/16 05:04:23;;;;;;;;;;;;;;;-140.72;0.00;52545.06;5075612;28;20393;-72
2023/07/16 05:06:48;;;;;;;;;;;;;;;-140.72;0.00;52559.28;5092118;28;19971;-72
2023/07/16 05:09:14;;;;;;;;;;;;;;;-140.72;0.00;52528.84;5088235;28;19920;-73
2023/07/16 05:11:39;;;;;;;;;;;;;;;-140.72;0.00;52512.59;5081580;28;19969;-72
2023/07/16 05:14:04;;;;;;;;;;;;;;;-140.72;0.00;52536.97;5090613;28;20330;-72
2023/07/16 05:16:29;;;;;;;;;;;;;;;-140.72;0.00;52567.41;5081963;28;20034;-73
2023/07/16 05:18:55;;;;;;;;;;;;;;;-140.72;0.00;52541.03;5097952;28;20311;-76
2023/07/16 05:21:34;;;;;;;;;;;;;;;-140.72;0.00;52539.00;5085596;28;20253;-74
2023/07/16 05:23:59;;;;;;;;;;;;;;;-140.72;0.00;52512.59;5085480;28;20729;-74
2023/07/16 05:26:51;;;;;;;;;;;;;;;-140.72;0.00;52520.72;5058981;28;20011;-74
2023/07/16 05:29:16;;;;;;;;;;;;;;;-140.72;0.00;52534.94;5097321;28;19979;-75
2023/07/16 05:31:42;;;;;;;;;;;;;;;-140.72;0.00;52526.81;5099191;28;19979;-76
2023/07/16 05:34:08;;;;;;;;;;;;;;;-140.72;0.00;52543.03;5067939;28;19971;-78
2023/07/16 05:36:33;;;;;;;;;;;;;;;-140.72;0.00;52561.31;5076496;28;20002;-76
2023/07/16 05:38:58;;;;;;;;;;;;;;;-140.72;0.00;52561.31;5073654;28;19920;-76
2023/07/16 05:41:23;;;;;;;;;;;;;;;-140.72;0.00;52551.16;5100151;28;20259;-76
2023/07/16 05:43:49;;;;;;;;;;;;;;;-140.72;0.00;52490.28;5086142;28;19966;-77
2023/07/16 05:46:14;;;;;;;;;;;;;;;-140.72;0.00;52510.59;5072440;28;19919;-77
2023/07/16 05:48:39;;;;;;;;;;;;;;;-140.72;0.00;52528.84;5067624;28;19928;-78
2023/07/16 05:51:04;;;;;;;;;;;;;;;-140.72;0.00;52506.53;5075447;28;19924;-76
2023/07/16 05:53:30;;;;;;;;;;;;;;;-140.72;0.00;52500.44;5081285;28;19920;-77
2023/07/16 05:55:55;;;;;;;;;;;;;;;-140.72;0.00;52494.34;5087725;28;20292;-76
2023/07/16 05:58:22;;;;;;;;;;;;;;;-140.72;0.00;52514.63;5075631;28;19917;-76
2023/07/16 06:00:47;;;;;;;;;;;;;;;-140.72;0.00;52516.66;5070420;28;19926;-76
2023/07/16 06:03:18;;;;;;;;;;;;;;;-140.72;0.00;52516.66;5093193;28;20043;-76
2023/07/16 06:05:43;;;;;;;;;;;;;;;-140.72;0.00;52534.94;5077968;28;19920;-76
2023/07/16 06:08:09;;;;;;;;;;;;;;;-140.72;0.00;52508.56;5086678;28;19935;-75
2023/07/16 06:10:34;;;;;;;;;;;;;;;-140.72;0.00;52526.81;5087354;28;20013;-75
2023/07/16 06:12:59;;;;;;;;;;;;;;;-140.72;0.00;52500.44;5084612;28;19976;-76
2023/07/16 06:15:25;;;;;;;;;;;;;;;-140.72;0.00;52500.44;5080290;28;20023;-73
2023/07/16 06:17:50;;;;;;;;;;;;;;;-140.72;0.00;52498.41;5080554;28;19912;-73
2023/07/16 06:20:15;;;;;;;;;;;;;;;-140.72;0.00;52500.44;5091176;28;19956;-74
2023/07/16 06:22:50;;;;;;;;;;;;;;;-140.72;0.00;52455.78;5093061;28;19926;-74
2023/07/16 06:25:15;;;;;;;;;;;;;;;-140.72;0.00;52463.91;5081466;28;19964;-78
2023/07/16 06:27:40;;;;;;;;;;;;;;;-140.72;0.00;52480.16;5065698;28;19981;-76
2023/07/16 06:30:24;;;;;;;;;;;;;;;-140.72;0.00;52451.72;5085979;28;20029;-77
2023/07/16 06:32:49;;;;;;;;;;;;;;;-140.72;0.00;52480.16;5085075;28;19976;-77
2023/07/16 06:35:14;;;;;;;;;;;;;;;-140.72;0.00;52480.16;5085603;28;20003;-77
2023/07/16 06:37:39;;;;;;;;;;;;;;;-140.72;0.00;52510.59;5080303;28;19917;-77
2023/07/16 06:40:05;;;;;;;;;;;;;;;-140.72;0.00;52512.59;5082895;28;19920;-75
2023/07/16 06:42:30;;;;;;;;;;;;;;;-140.72;0.00;52514.63;5091731;28;19924;-77
2023/07/16 06:44:56;;;;;;;;;;;;;;;-140.72;0.00;52482.16;5081141;28;19927;-75
2023/07/16 06:47:21;;;;;;;;;;;;;;;-140.72;0.00;52492.31;5077486;28;19966;-75
2023/07/16 06:49:46;;;;;;;;;;;;;;;-140.72;0.00;52480.16;5091098;28;20031;-75
2023/07/16 06:52:19;;;;;;;;;;;;;;;-140.72;0.00;52445.66;5095618;28;19924;-75
2023/07/16 06:54:44;;;;;;;;;;;;;;;-140.72;0.00;52459.84;5094704;28;20327;-75
2023/07/16 06:57:09;;;;;;;;;;;;;;;-140.72;0.00;52480.16;5087722;28;19923;-77
2023/07/16 06:59:34;;;;;;;;;;;;;;;-140.72;0.00;52449.72;5094555;28;19925;-75
2023/07/16 07:02:00;;;;;;;;;;;;;;;-140.72;0.00;52500.44;5072132;28;19959;-76
2023/07/16 07:04:25;;;;;;;;;;;;;;;-140.72;0.00;52488.25;5083452;28;19916;-78
2023/07/16 07:06:50;;;;;;;;;;;;;;;-140.72;0.00;52435.50;5101038;28;20350;-77
2023/07/16 07:09:15;;;;;;;;;;;;;;;-140.72;0.00;52512.59;5084449;28;19943;-79
2023/07/16 07:11:41;;;;;;;;;;;;;;;-140.72;0.00;52492.31;5084580;28;20015;-76
2023/07/16 07:14:06;;;;;;;;;;;;;;;-140.72;0.00;52502.47;5087331;28;19942;-78
2023/07/16 07:16:31;;;;;;;;;;;;;;;-140.72;0.00;52486.22;5089717;28;19945;-78
2023/07/16 07:18:56;;;;;;;;;;;;;;;-140.72;0.00;52467.97;5094660;28;19974;-77
2023/07/16 07:21:24;;;;;;;;;;;;;;;-140.72;0.00;52437.53;5095792;28;19916;-76
2023/07/16 07:23:49;;;;;;;;;;;;;;;-140.72;0.00;52411.16;5069619;28;19927;-77
2023/07/16 07:26:29;;;;;;;;;;;;;;;-140.72;0.00;52445.66;5064656;28;19920;-76
2023/07/16 07:28:55;;;;;;;;;;;;;;;-140.72;0.00;52413.19;5109356;28;19916;-78
2023/07/16 07:31:20;;;;;;;;;;;;;;;-140.72;0.00;52461.88;5073088;28;19933;-77
2023/07/16 07:33:45;;;;;;;;;;;;;;;-140.72;0.00;52453.75;5107493;28;19916;-76
2023/07/16 07:36:11;;;;;;;;;;;;;;;-140.72;0.00;52522.75;5086444;28;20366;-80
2023/07/16 07:38:36;;;;;;;;;;;;;;;-140.72;0.00;52496.38;5094397;28;19939;-76
2023/07/16 07:41:01;;;;;;;;;;;;;;;-140.72;0.00;52504.50;5072443;28;19961;-77
2023/07/16 07:43:27;;;;;;;;;;;;;;;-140.72;0.00;52459.84;5072223;28;19966;-79
2023/07/16 07:45:52;;;;;;;;;;;;;;;-140.72;0.00;52439.56;5076024;28;20548;-77
2023/07/16 07:48:17;;;;;;;;;;;;;;;-140.72;0.00;52459.84;5099765;28;19916;-78
2023/07/16 07:50:43;;;;;;;;;;;;;;;-140.72;0.00;52494.34;5101077;28;19916;-78
2023/07/16 07:53:08;;;;;;;;;;;;;;;-140.72;0.00;52455.78;5089101;28;20352;-77
2023/07/16 07:55:34;;;;;;;;;;;;;;;-140.72;0.00;52472.03;5083506;28;20010;-78
2023/07/16 07:57:59;;;;;;;;;;;;;;;-140.72;0.00;52492.31;5077050;28;19924;-79
2023/07/16 08:03:44;;;;;;;;;;;;;;;-140.72;0.00;52494.34;5092492;28;19966;-74
2023/07/16 08:06:11;;;;;;;;;;;;;;;-140.72;0.00;52423.31;5078646;28;19928;-76
2023/07/16 08:08:37;;;;;;;;;;;;;;;-140.72;0.00;52435.50;5094127;28;20006;-77
2023/07/16 08:11:02;;;;;;;;;;;;;;;-140.72;0.00;52470.00;5074528;28;20350;-76
2023/07/16 08:13:27;;;;;;;;;;;;;;;-140.72;0.00;52453.75;5067027;28;19981;-76
2023/07/16 08:15:52;;;;;;;;;;;;;;;-140.72;0.00;52421.28;5088511;28;19916;-76
2023/07/16 08:18:18;;;;;;;;;;;;;;;-140.72;0.00;52447.69;5089607;28;20041;-75
2023/07/16 08:20:43;;;;;;;;;;;;;;;-140.72;0.00;52388.84;5105320;28;19955;-76
2023/07/16 08:23:08;;;;;;;;;;;;;;;-140.72;0.00;52451.72;5090781;28;20441;-79
2023/07/16 08:25:34;;;;;;;;;;;;;;;-140.72;0.00;52419.28;5066604;28;20391;-78
2023/07/16 08:28:02;;;;;;;;;;;;;;;-140.72;0.00;52437.53;5077672;28;19942;-77
2023/07/16 08:30:27;;;;;;;;;;;;;;;-140.72;0.00;52435.50;5080156;28;19919;-77
2023/07/16 08:32:52;;;;;;;;;;;;;;;-140.72;0.00;52437.53;5078410;28;19919;-75
2023/07/16 08:35:19;;;;;;;;;;;;;;;-140.72;0.00;52447.69;5072196;28;19923;-77
2023/07/16 08:37:44;;;;;;;;;;;;;;;-140.72;0.00;52431.44;5076488;28;20023;-78
2023/07/16 08:40:11;;;;;;;;;;;;;;;-140.72;0.00;52431.44;5083297;28;19916;-82
2023/07/16 08:42:37;;;;;;;;;;;;;;;-140.72;0.00;52421.28;5086940;28;19984;-78
2023/07/16 08:45:02;;;;;;;;;;;;;;;-140.72;0.00;52427.38;5083425;28;20257;-78
2023/07/16 08:47:30;;;;;;;;;;;;;;;-140.72;0.00;52401.00;5094517;28;19951;-78
2023/07/16 08:49:56;;;;;;;;;;;;;;;-140.72;0.00;52382.75;5088201;28;19917;-80
2023/07/16 08:52:21;;;;;;;;;;;;;;;-140.72;0.00;52394.91;5064435;28;19943;-79
2023/07/16 08:54:46;;;;;;;;;;;;;;;-140.72;0.00;52403.03;5090103;28;20002;-76
2023/07/16 08:57:12;;;;;;;;;;;;;;;-140.72;0.00;52384.78;5070837;28;20011;-78
2023/07/16 08:59:37;;;;;;;;;;;;;;;-140.72;0.00;52449.72;5078469;28;19920;-78
2023/07/16 09:02:03;;;;;;;;;;;;;;;-140.72;0.00;52401.00;5088770;28;19969;-80
2023/07/16 09:04:35;;;;;;;;;;;;;;;-140.72;0.00;52405.06;5089189;28;19959;-82
2023/07/16 09:07:00;;;;;;;;;;;;;;;-140.72;0.00;52407.09;5083390;28;19955;-81
2023/07/16 09:09:28;;;;;;;;;;;;;;;-140.72;0.00;52419.28;5085095;28;19916;-81
2023/07/16 09:11:53;;;;;;;;;;;;;;;-140.72;0.00;52386.81;5068766;28;19920;-79
2023/07/16 09:14:20;;;;;;;;;;;;;;;-140.72;0.00;52378.69;5108628;28;19948;-77
2023/07/16 09:16:52;;;;;;;;;;;;;;;-140.72;0.00;52409.13;5080219;28;19928;-77
2023/07/16 09:19:18;;;;;;;;;;;;;;;-140.72;0.00;52358.41;5089607;28;19958;-77
2023/07/16 09:21:59;;;;;;;;;;;;;;;-140.72;0.00;52344.19;5086651;28;19999;-78
2023/07/16 09:24:25;;;;;;;;;;;;;;;-140.72;0.00;52374.63;5070775;28;19975;-84
2023/07/16 09:26:53;;;;;;;;;;;;;;;-140.72;0.00;52342.16;5085101;28;20522;-80
2023/07/16 09:29:19;;;;;;;;;;;;;;;-140.72;0.00;52378.69;5080688;28;19955;-80
2023/07/16 09:32:02;;;;;;;;;;;;;;;-140.72;0.00;52354.34;5091929;28;19916;-80
2023/07/16 09:34:27;;;;;;;;;;;;;;;-140.72;0.00;52293.47;5098913;28;20399;-79
2023/07/16 09:36:53;;;;;;;;;;;;;;;-140.72;0.00;52325.94;5075289;28;19972;-80
2023/07/16 09:39:22;;;;;;;;;;;;;;;-140.72;0.00;52374.63;5076424;28;20035;-83
2023/07/16 09:41:48;;;;;;;;;;;;;;;-140.72;0.00;52319.84;5078558;28;19916;-81
2023/07/16 09:44:14;;;;;;;;;;;;;;;-140.72;0.00;52332.03;5088299;28;19928;-82
2023/07/16 09:46:40;;;;;;;;;;;;;;;-140.72;0.00;52315.78;5076824;28;19927;-82
2023/07/16 09:49:05;;;;;;;;;;;;;;;-140.72;0.00;52305.63;5083362;28;19916;-81
2023/07/16 09:51:32;;;;;;;;;;;;;;;-140.72;0.00;52356.38;5081592;28;19930;-78
2023/07/16 09:53:59;;;;;;;;;;;;;;;-140.72;0.00;52348.25;5098100;28;19952;-79
2023/07/16 09:56:29;;;;;;;;;;;;;;;-140.72;0.00;52338.09;5103435;28;19920;-77
2023/07/16 09:58:55;;;;;;;;;;;;;;;-140.72;0.00;52275.19;5092109;28;19920;-77
2023/07/16 10:01:20;;;;;;;;;;;;;;;-140.72;0.00;52325.94;5086585;28;19920;-78
2023/07/16 10:03:50;;;;;;;;;;;;;;;-140.72;0.00;52362.44;5090571;28;19920;-80
2023/07/16 10:06:15;;;;;;;;;;;;;;;-140.72;0.00;52350.28;5088307;28;19920;-80
2023/07/16 10:08:40;;;;;;;;;;;;;;;-140.72;0.00;52364.47;5086976;28;20399;-80
2023/07/16 10:11:15;;;;;;;;;;;;;;;-140.72;0.00;52388.84;5100298;28;19963;-80
2023/07/16 10:13:40;;;;;;;;;;;;;;;-140.72;0.00;52295.50;5085050;28;19962;-80
2023/07/16 10:16:05;;;;;;;;;;;;;;;-140.72;0.00;52285.34;5081616;28;20331;-78
2023/07/16 10:18:31;;;;;;;;;;;;;;;-140.72;0.00;52325.94;5100622;28;19948;-84
2023/07/16 10:21:19;;;;;;;;;;;;;;;-140.72;0.00;52283.31;5074780;28;19921;-82
2023/07/16 10:23:45;;;;;;;;;;;;;;;-140.72;0.00;52273.19;5101718;28;19932;-76
2023/07/16 10:26:11;;;;;;;;;;;;;;;-140.72;0.00;52330.00;5091108;28;19920;-79
2023/07/16 10:28:39;;;;;;;;;;;;;;;-140.72;0.00;52287.38;5102416;28;19920;-77
2023/07/16 10:31:07;;;;;;;;;;;;;;;-140.72;0.00;52269.13;5103045;28;19916;-78
2023/07/16 10:33:32;;;;;;;;;;;;;;;-140.72;0.00;52261.00;5102480;28;20014;-77
2023/07/16 10:36:01;;;;;;;;;;;;;;;-140.72;0.00;52285.34;5085370;28;19955;-80
2023/07/16 10:38:40;;;;;;;;;;;;;;;-140.72;0.00;52240.72;5095710;28;19916;-79
2023/07/16 10:41:05;;;;;;;;;;;;;;;-140.72;0.00;52208.25;5109113;28;19920;-78
2023/07/16 10:43:30;;;;;;;;;;;;;;;-140.72;0.00;52244.78;5077484;28;20384;-79
2023/07/16 10:45:56;;;;;;;;;;;;;;;-140.72;0.00;52261.00;5084774;28;19923;-79
2023/07/16 10:48:24;;;;;;;;;;;;;;;-140.72;0.00;52187.97;5094832;28;19953;-79
2023/07/16 10:50:52;;;;;;;;;;;;;;;-140.72;0.00;52224.47;5096722;28;19920;-78
2023/07/16 10:53:19;;;;;;;;;;;;;;;-140.72;0.00;52238.69;5091194;28;19923;-79
2023/07/16 10:55:44;;;;;;;;;;;;;;;-140.72;0.00;52224.47;5087931;28;19923;-77
2023/07/16 10:58:10;;;;;;;;;;;;;;;-140.72;0.00;52175.78;5104515;27;19920;-77
2023/07/16 11:00:39;;;;;;;;;;;;;;;-140.72;0.00;52127.09;5076030;28;19920;-77
2023/07/16 11:03:06;;;;;;;;;;;;;;;-140.72;0.00;52236.66;5106493;28;19938;-77
2023/07/16 11:05:31;;;;;;;;;;;;;;;-140.72;0.00;52263.03;5088012;28;19916;-78
2023/07/16 11:07:57;;;;;;;;;;;;;;;-140.72;0.00;52248.81;5096918;28;19974;-77
2023/07/16 11:10:23;;;;;;;;;;;;;;;-140.72;0.00;52293.47;5098466;28;19958;-77
2023/07/16 11:12:52;;;;;;;;;;;;;;;-140.72;0.00;52315.78;5094683;28;19946;-78
2023/07/16 11:15:18;;;;;;;;;;;;;;;-140.72;0.00;52281.28;5079878;28;20274;-78
2023/07/16 11:17:48;;;;;;;;;;;;;;;-140.72;0.00;52309.69;5067301;28;19927;-78
2023/07/16 11:20:13;;;;;;;;;;;;;;;-140.72;0.00;52386.81;5071841;28;20354;-79
2023/07/16 11:22:39;;;;;;;;;;;;;;;-140.72;0.00;52378.69;5090140;28;19924;-79
2023/07/16 11:25:10;;;;;;;;;;;;;;;-140.72;0.00;52358.41;5102025;27;19921;-78
2023/07/16 11:27:35;;;;;;;;;;;;;;;-140.72;0.00;52344.19;5088071;28;20349;-77
2023/07/16 11:30:01;;;;;;;;;;;;;;;-140.72;0.00;52334.03;5075287;28;19955;-78
2023/07/16 11:32:27;;;;;;;;;;;;;;;-140.72;0.00;52342.16;5088195;28;19916;-78
2023/07/16 11:34:56;;;;;;;;;;;;;;;-140.72;0.00;52338.09;5079261;28;19921;-77
2023/07/16 11:37:21;;;;;;;;;;;;;;;-140.72;0.00;52344.19;5084736;28;19916;-78
2023/07/16 11:39:48;;;;;;;;;;;;;;;-140.72;0.00;52323.91;5096996;28;19991;-78
2023/07/16 11:42:13;;;;;;;;;;;;;;;-140.72;0.00;52317.81;5091149;28;19924;-79
2023/07/16 11:44:38;;;;;;;;;;;;;;;-140.72;0.00;52297.53;5086345;28;20377;-79
2023/07/16 11:47:04;;;;;;;;;;;;;;;-140.72;0.00;52279.25;5080046;28;19920;-78
2023/07/16 11:49:29;;;;;;;;;;;;;;;-140.72;0.00;52175.78;5101769;28;20003;-79
2023/07/16 11:51:54;;;;;;;;;;;;;;;-140.72;0.00;52269.13;5064348;28;19920;-78
2023/07/16 11:54:19;;;;;;;;;;;;;;;-140.72;0.00;52342.16;5098793;28;19920;-79
2023/07/16 11:56:47;;;;;;;;;;;;;;;-140.72;0.00;52372.59;5090424;28;19931;-79
2023/07/16 11:59:12;;;;;;;;;;;;;;;-140.72;0.00;52376.66;5073636;28;19916;-78
2023/07/16 12:01:37;;;;;;;;;;;;;;;-140.72;0.00;52224.47;5073760;28;19927;-78
2023/07/16 12:04:03;;;;;;;;;;;;;;;-140.72;0.00;52305.63;5078267;28;19982;-79
2023/07/16 12:06:28;;;;;;;;;;;;;;;-140.72;0.00;52179.84;5075866;28;19942;-77
2023/07/16 12:09:22;;;;;;;;;;;;;;;-140.72;0.00;52228.53;5095415;28;19919;-78
2023/07/16 12:11:47;;;;;;;;;;;;;;;-140.72;0.00;52277.22;5071541;28;19927;-77
2023/07/16 12:14:13;;;;;;;;;;;;;;;-140.72;0.00;52338.09;5063507;28;19920;-83
2023/07/16 12:16:38;;;;;;;;;;;;;;;-140.72;0.00;52325.94;5076034;28;19924;-75
2023/07/16 12:19:03;;;;;;;;;;;;;;;-140.72;0.00;52317.81;5093836;28;19920;-76
2023/07/16 12:21:29;;;;;;;;;;;;;;;-140.72;0.00;52147.38;5092947;28;19998;-75
2023/07/16 12:23:54;;;;;;;;;;;;;;;-140.72;0.00;52027.66;5085862;28;20398;-79
2023/07/16 12:26:20;;;;;;;;;;;;;;;-140.72;0.00;51972.88;5098404;28;19969;-78
2023/07/16 12:31:48;;;;;;;;;;;;;;;-140.72;0.00;52133.16;5093528;28;19922;-74
2023/07/16 12:34:35;;;;;;;;;;;;;;;-140.72;0.00;52204.19;5057749;28;19921;-77
2023/07/16 12:37:00;;;;;;;;;;;;;;;-140.72;0.00;52232.59;5076951;28;19971;-76
2023/07/16 12:39:26;;;;;;;;;;;;;;;-140.72;0.00;52133.16;5094624;28;20025;-77
2023/07/16 12:41:52;;;;;;;;;;;;;;;-140.72;0.00;52139.25;5077362;28;19995;-76
2023/07/16 12:44:17;;;;;;;;;;;;;;;-140.72;0.00;52187.97;5079811;28;20029;-76